| time (UTC) | temp F | wind direction | speed knots | gust knots | rain 1hr in | rain 24hr in | rain mn in | humidity % | barometer mb |
| 20260508165154 | 68 | 215 | 1.7 | 1.7 | 0.00 | 0.00 | 0.00 | 45 | 1019.4 |
| 20260508164651 | 67 | 166 | 2.6 | 2.6 | 0.00 | 0.00 | 0.00 | 46 | 1019.6 |
| 20260508164147 | 67 | 195 | 2.6 | 4.3 | 0.00 | 0.00 | 0.00 | 47 | 1019.5 |
| 20260508163645 | 68 | 253 | 0.9 | 1.7 | 0.00 | 0.00 | 0.00 | 47 | 1019.4 |
| 20260508163143 | 67 | 354 | 1.7 | 1.7 | 0.00 | 0.00 | 0.00 | 45 | 1019.3 |
| 20260508162637 | 68 | 257 | 1.7 | 1.7 | 0.00 | 0.00 | 0.00 | 48 | 1019.7 |
| 20260508162135 | 67 | 276 | 0.9 | 0.9 | 0.00 | 0.00 | 0.00 | 43 | 1019.6 |
| 20260508161632 | 66 | 238 | 0.9 | 0.9 | 0.00 | 0.00 | 0.00 | 47 | 1019.7 |
| 20260508161129 | 68 | 180 | 0.9 | 0.9 | 0.00 | 0.00 | 0.00 | 47 | 1019.9 |
| 20260508160628 | 68 | 171 | 1.7 | 2.6 | 0.00 | 0.00 | 0.00 | 48 | 1020.1 |
| 20260508160125 | 68 | 191 | 1.7 | 1.7 | 0.00 | 0.00 | 0.00 | 46 | 1020.2 |
| 20260508155622 | 68 | 256 | 0.0 | 0.9 | 0.00 | 0.00 | 0.00 | 52 | 1020.4 |
| 20260508155119 | 67 | 212 | 1.7 | 1.7 | 0.00 | 0.00 | 0.00 | 50 | 1020.3 |
| 20260508154615 | 66 | 152 | 1.7 | 1.7 | 0.00 | 0.00 | 0.00 | 50 | 1019.9 |
| 20260508154113 | 65 | 210 | 0.9 | 1.7 | 0.00 | 0.00 | 0.00 | 58 | 1020.2 |
| 20260508153609 | 65 | 171 | 0.9 | 2.6 | 0.00 | 0.00 | 0.00 | 50 | 1020.1 |
| 20260508153105 | 68 | 228 | 0.9 | 0.9 | 0.00 | 0.00 | 0.00 | 48 | 1020.4 |
| 20260508152603 | 67 | 195 | 0.0 | 0.0 | 0.00 | 0.00 | 0.00 | 55 | 1020.1 |
| 20260508152058 | 66 | 248 | 0.0 | 0.0 | 0.00 | 0.00 | 0.00 | 55 | 1020.0 |
| 20260508151555 | 65 | 232 | 0.9 | 0.9 | 0.00 | 0.00 | 0.00 | 52 | 1020.2 |
| 20260508151052 | 66 | 165 | 1.7 | 1.7 | 0.00 | 0.00 | 0.00 | 56 | 1020.4 |
| 20260508150549 | 66 | 252 | 0.0 | 0.9 | 0.00 | 0.00 | 0.00 | 55 | 1020.2 |
| 20260508150045 | 65 | 241 | 0.0 | 0.0 | 0.00 | 0.00 | 0.00 | 53 | 1020.6 |
| 20260508145542 | 64 | 226 | 0.9 | 0.9 | 0.00 | 0.00 | 0.00 | 53 | 1020.6 |
| 20260508145038 | 64 | 242 | 0.0 | 0.0 | 0.00 | 0.00 | 0.00 | 54 | 1020.3 |
| 20260508144536 | 66 | 253 | 0.9 | 1.7 | 0.00 | 0.00 | 0.00 | 56 | 1020.5 |
| 20260508144033 | 64 | 220 | 0.0 | 0.9 | 0.00 | 0.00 | 0.00 | 52 | 1020.4 |
| 20260508143531 | 64 | 241 | 0.0 | 0.0 | 0.00 | 0.00 | 0.00 | 52 | 1020.7 |
| 20260508143027 | 65 | 266 | 0.9 | 0.9 | 0.00 | 0.00 | 0.00 | 50 | 1020.4 |
| 20260508142524 | 63 | 279 | 0.9 | 0.9 | 0.00 | 0.00 | 0.00 | 57 | 1020.6 |
| 20260508142021 | 63 | 255 | 0.9 | 0.9 | 0.00 | 0.00 | 0.00 | 55 | 1020.4 |
| 20260508141517 | 63 | 182 | 1.7 | 1.7 | 0.00 | 0.00 | 0.00 | 60 | 1020.7 |
| 20260508141015 | 65 | 167 | 1.7 | 2.6 | 0.00 | 0.00 | 0.00 | 50 | 1020.4 |
| 20260508140512 | 65 | 241 | 0.0 | 0.9 | 0.00 | 0.00 | 0.00 | 53 | 1020.7 |
| 20260508140008 | 64 | 11 | 0.0 | 0.9 | 0.00 | 0.00 | 0.00 | 54 | 1020.8 |
| 20260508135503 | 64 | 192 | 0.9 | 0.9 | 0.00 | 0.00 | 0.00 | 54 | 1020.3 |
| 20260508134954 | 63 | 252 | 0.0 | 0.0 | 0.00 | 0.00 | 0.00 | 57 | 1020.6 |
| 20260508134451 | 63 | 239 | 0.0 | 0.0 | 0.00 | 0.00 | 0.00 | 53 | 1020.4 |
| 20260508133948 | 63 | 306 | 0.9 | 0.9 | 0.00 | 0.00 | 0.00 | 56 | 1020.6 |
| 20260508133446 | 62 | 256 | 0.0 | 0.9 | 0.00 | 0.00 | 0.00 | 56 | 1020.7 |
| 20260508132942 | 62 | 243 | 0.0 | 0.0 | 0.00 | 0.00 | 0.00 | 63 | 1020.5 |
| 20260508132440 | 62 | 244 | 0.9 | 0.9 | 0.00 | 0.00 | 0.00 | 65 | 1020.6 |
| 20260508131936 | 61 | 262 | 0.0 | 0.0 | 0.00 | 0.00 | 0.00 | 70 | 1020.4 |
| 20260508131432 | 60 | 254 | 0.0 | 0.0 | 0.00 | 0.00 | 0.00 | 63 | 1020.3 |
| 20260508130929 | 59 | 342 | 1.7 | 1.7 | 0.00 | 0.00 | 0.00 | 68 | 1020.5 |
| 20260508130426 | 57 | 232 | 0.0 | 0.0 | 0.00 | 0.00 | 0.00 | 72 | 1020.2 |
| 20260508125922 | 56 | 341 | 0.9 | 0.9 | 0.00 | 0.00 | 0.00 | 74 | 1020.3 |
| 20260508125418 | 56 | 237 | 0.9 | 0.9 | 0.00 | 0.00 | 0.00 | 81 | 1020.4 |
| 20260508124916 | 56 | 263 | 0.0 | 0.0 | 0.00 | 0.00 | 0.00 | 84 | 1020.3 |
| 20260508124414 | 55 | 262 | 0.0 | 0.0 | 0.00 | 0.00 | 0.00 | 84 | 1020.2 |
| 20260508123911 | 54 | 262 | 0.0 | 0.0 | 0.00 | 0.00 | 0.00 | 85 | 1020.3 |
| 20260508123410 | 54 | 263 | 0.0 | 0.9 | 0.00 | 0.00 | 0.00 | 86 | 1020.2 |
| 20260508122905 | 53 | 263 | 0.0 | 0.0 | 0.00 | 0.00 | 0.00 | 86 | 1020.1 |
| 20260508122403 | 53 | 339 | 0.0 | 0.9 | 0.00 | 0.00 | 0.00 | 87 | 1019.9 |
| 20260508121900 | 53 | 251 | 0.0 | 0.0 | 0.00 | 0.00 | 0.00 | 89 | 1020.3 |
| 20260508121358 | 52 | 252 | 0.0 | 0.0 | 0.00 | 0.00 | 0.00 | 89 | 1020.1 |
| 20260508120855 | 51 | 251 | 0.0 | 0.0 | 0.00 | 0.00 | 0.00 | 92 | 1020.0 |
| 20260508120353 | 51 | 252 | 0.0 | 0.0 | 0.00 | 0.00 | 0.00 | 93 | 1020.0 |
| 20260508115850 | 50 | 252 | 0.0 | 0.0 | 0.00 | 0.00 | 0.00 | 96 | 1019.8 |
| 20260508115347 | 49 | 255 | 0.0 | 0.0 | 0.00 | 0.00 | 0.00 | 96 | 1019.8 |
| 20260508114844 | 49 | 253 | 0.0 | 0.0 | 0.00 | 0.00 | 0.00 | 98 | 1019.7 |
| 20260508114341 | 48 | 252 | 0.0 | 0.0 | 0.00 | 0.00 | 0.00 | 98 | 1019.6 |
| 20260508113838 | 48 | 252 | 0.0 | 0.0 | 0.00 | 0.00 | 0.00 | 99 | 1019.5 |
| 20260508113336 | 48 | 253 | 0.0 | 0.0 | 0.00 | 0.00 | 0.00 | 99 | 1019.3 |
| 20260508112832 | 47 | 255 | 0.0 | 0.0 | 0.00 | 0.00 | 0.00 | 99 | 1019.4 |
| 20260508112329 | 47 | 252 | 0.0 | 0.0 | 0.00 | 0.00 | 0.00 | 99 | 1019.2 |
| 20260508111826 | 47 | 257 | 0.0 | 0.0 | 0.00 | 0.00 | 0.00 | 99 | 1019.1 |
| 20260508111323 | 46 | 261 | 0.0 | 0.0 | 0.00 | 0.00 | 0.00 | 99 | 1019.2 |
| 20260508110820 | 46 | 259 | 0.0 | 0.0 | 0.00 | 0.00 | 0.00 | 99 | 1019.1 |
| 20260508110318 | 46 | 259 | 0.0 | 0.0 | 0.00 | 0.00 | 0.00 | 99 | 1019.0 |
| 20260508105817 | 46 | 260 | 0.0 | 0.0 | 0.00 | 0.00 | 0.00 | 99 | 1018.8 |
| 20260508105314 | 45 | 263 | 0.0 | 0.0 | 0.00 | 0.00 | 0.00 | 99 | 1018.8 |
| 20260508104811 | 45 | 261 | 0.0 | 0.0 | 0.00 | 0.00 | 0.00 | 99 | 1018.9 |
| 20260508104308 | 45 | 261 | 0.0 | 0.0 | 0.00 | 0.00 | 0.00 | 99 | 1018.5 |
| 20260508103805 | 45 | 252 | 0.0 | 0.0 | 0.00 | 0.00 | 0.00 | 99 | 1018.5 |
| 20260508103302 | 45 | 252 | 0.0 | 0.0 | 0.00 | 0.00 | 0.00 | 99 | 1018.4 |
| 20260508102800 | 45 | 251 | 0.0 | 0.0 | 0.00 | 0.00 | 0.00 | 99 | 1018.4 |
| 20260508102258 | 46 | 258 | 0.0 | 0.0 | 0.00 | 0.00 | 0.00 | 99 | 1018.1 |
| 20260508101754 | 46 | 260 | 0.0 | 0.0 | 0.00 | 0.00 | 0.00 | 99 | 1018.2 |
| 20260508101252 | 46 | 255 | 0.0 | 0.0 | 0.00 | 0.00 | 0.00 | 99 | 1017.9 |
| 20260508100749 | 46 | 253 | 0.0 | 0.0 | 0.00 | 0.00 | 0.00 | 99 | 1017.7 |
| 20260508100248 | 46 | 253 | 0.0 | 0.0 | 0.00 | 0.00 | 0.00 | 99 | 1017.8 |
| 20260508095743 | 46 | 255 | 0.0 | 0.0 | 0.00 | 0.00 | 0.00 | 99 | 1017.9 |
| 20260508095241 | 47 | 254 | 0.0 | 0.0 | 0.00 | 0.00 | 0.00 | 99 | 1017.8 |
| 20260508094738 | 46 | 254 | 0.0 | 0.0 | 0.00 | 0.00 | 0.00 | 99 | 1017.8 |
| 20260508094235 | 47 | 253 | 0.0 | 0.0 | 0.00 | 0.00 | 0.00 | 99 | 1017.8 |
| 20260508093732 | 47 | 254 | 0.0 | 0.0 | 0.00 | 0.00 | 0.00 | 99 | 1017.9 |
| 20260508093229 | 47 | 256 | 0.0 | 0.0 | 0.00 | 0.00 | 0.00 | 99 | 1017.5 |
| 20260508092726 | 47 | 255 | 0.0 | 0.0 | 0.00 | 0.00 | 0.00 | 99 | 1017.7 |
| 20260508092224 | 47 | 257 | 0.0 | 0.0 | 0.00 | 0.00 | 0.00 | 99 | 1017.8 |
| 20260508091722 | 47 | 253 | 0.0 | 0.0 | 0.00 | 0.00 | 0.00 | 99 | 1017.9 |
| 20260508091218 | 47 | 255 | 0.0 | 0.0 | 0.00 | 0.00 | 0.00 | 99 | 1017.8 |
| 20260508090717 | 47 | 256 | 0.0 | 0.0 | 0.00 | 0.00 | 0.00 | 99 | 1017.8 |
| 20260508090214 | 47 | 253 | 0.0 | 0.0 | 0.00 | 0.00 | 0.00 | 99 | 1017.7 |
| 20260508085710 | 47 | 253 | 0.0 | 0.0 | 0.00 | 0.00 | 0.00 | 99 | 1017.6 |
| 20260508085207 | 48 | 254 | 0.0 | 0.0 | 0.00 | 0.00 | 0.00 | 99 | 1017.3 |
| 20260508084703 | 47 | 264 | 0.0 | 0.0 | 0.00 | 0.00 | 0.00 | 99 | 1017.3 |
| 20260508084201 | 47 | 254 | 0.0 | 0.0 | 0.00 | 0.00 | 0.00 | 99 | 1017.5 |
| 20260508083658 | 47 | 254 | 0.0 | 0.0 | 0.00 | 0.00 | 0.00 | 99 | 1017.6 |
| 20260508083155 | 47 | 253 | 0.0 | 0.0 | 0.00 | 0.00 | 0.00 | 99 | 1017.6 |
| 20260508082650 | 47 | 254 | 0.0 | 0.0 | 0.00 | 0.00 | 0.00 | 99 | 1017.3 |
| 20260508082148 | 47 | 251 | 0.0 | 0.0 | 0.00 | 0.00 | 0.00 | 99 | 1017.3 |
| 20260508081645 | 47 | 252 | 0.0 | 0.0 | 0.00 | 0.00 | 0.00 | 99 | 1017.4 |
| 20260508081142 | 48 | 257 | 0.0 | 0.0 | 0.00 | 0.00 | 0.00 | 99 | 1017.4 |
| 20260508080639 | 48 | 253 | 0.0 | 0.0 | 0.00 | 0.00 | 0.00 | 99 | 1017.1 |
| 20260508080137 | 48 | 253 | 0.0 | 0.0 | 0.00 | 0.00 | 0.00 | 99 | 1017.3 |
| 20260508075633 | 48 | 253 | 0.0 | 0.0 | 0.00 | 0.00 | 0.00 | 99 | 1017.4 |
| 20260508075130 | 48 | 253 | 0.0 | 0.0 | 0.00 | 0.00 | 0.00 | 99 | 1017.1 |
| 20260508074628 | 48 | 253 | 0.0 | 0.0 | 0.00 | 0.00 | 0.00 | 99 | 1017.2 |
| 20260508074125 | 48 | 253 | 0.0 | 0.0 | 0.00 | 0.00 | 0.00 | 99 | 1017.2 |
| 20260508073622 | 48 | 253 | 0.0 | 0.0 | 0.00 | 0.00 | 0.00 | 99 | 1017.3 |
| 20260508073120 | 47 | 254 | 0.0 | 0.0 | 0.00 | 0.00 | 0.00 | 99 | 1017.1 |
| 20260508072615 | 47 | 256 | 0.0 | 0.9 | 0.00 | 0.00 | 0.00 | 99 | 1016.9 |
| 20260508072112 | 47 | 253 | 0.0 | 0.0 | 0.00 | 0.00 | 0.00 | 99 | 1017.2 |
| 20260508071610 | 47 | 250 | 0.0 | 0.0 | 0.00 | 0.00 | 0.00 | 99 | 1017.0 |
| 20260508071108 | 47 | 251 | 0.0 | 0.0 | 0.00 | 0.00 | 0.00 | 99 | 1017.2 |
| 20260508070606 | 48 | 251 | 0.0 | 0.0 | 0.00 | 0.00 | 0.00 | 99 | 1017.1 |
| 20260508070104 | 48 | 250 | 0.0 | 0.0 | 0.00 | 0.00 | 0.00 | 99 | 1017.0 |
| 20260508065601 | 48 | 260 | 0.0 | 0.0 | 0.00 | 0.00 | 0.00 | 99 | 1016.9 |
| 20260508065058 | 48 | 266 | 0.0 | 0.0 | 0.00 | 0.00 | 0.00 | 99 | 1016.9 |
| 20260508064556 | 48 | 273 | 0.0 | 0.0 | 0.00 | 0.00 | 0.00 | 99 | 1016.9 |
| 20260508064054 | 48 | 262 | 0.0 | 0.0 | 0.00 | 0.00 | 0.00 | 99 | 1016.9 |
| 20260508063551 | 48 | 245 | 0.0 | 0.0 | 0.00 | 0.00 | 0.00 | 99 | 1016.7 |
| 20260508063049 | 48 | 246 | 0.0 | 0.0 | 0.00 | 0.00 | 0.00 | 99 | 1016.9 |
| 20260508062546 | 48 | 245 | 0.0 | 0.0 | 0.00 | 0.00 | 0.00 | 99 | 1016.8 |
| 20260508062042 | 48 | 243 | 0.0 | 0.0 | 0.00 | 0.00 | 0.00 | 99 | 1016.8 |
| 20260508061541 | 48 | 239 | 0.0 | 0.0 | 0.00 | 0.00 | 0.00 | 98 | 1016.8 |
| 20260508061037 | 49 | 245 | 0.0 | 0.0 | 0.00 | 0.00 | 0.00 | 97 | 1016.7 |
| 20260508060534 | 49 | 244 | 0.0 | 0.0 | 0.00 | 0.00 | 0.00 | 97 | 1016.7 |
| 20260508060032 | 50 | 253 | 0.0 | 0.0 | 0.00 | 0.00 | 0.00 | 96 | 1016.6 |
| 20260508055527 | 50 | 257 | 0.0 | 0.0 | 0.00 | 0.00 | 0.00 | 96 | 1016.9 |
| 20260508055024 | 50 | 274 | 0.0 | 0.0 | 0.00 | 0.00 | 0.00 | 96 | 1016.8 |
| 20260508054520 | 49 | 285 | 0.0 | 0.0 | 0.00 | 0.00 | 0.00 | 95 | 1016.8 |
| 20260508054018 | 49 | 264 | 0.0 | 0.0 | 0.00 | 0.00 | 0.00 | 96 | 1016.8 |
| 20260508053514 | 49 | 245 | 0.0 | 0.0 | 0.00 | 0.00 | 0.00 | 97 | 1016.4 |
| 20260508053013 | 50 | 246 | 0.0 | 0.0 | 0.00 | 0.00 | 0.00 | 97 | 1016.6 |
| 20260508052510 | 49 | 255 | 0.0 | 0.0 | 0.00 | 0.00 | 0.00 | 97 | 1016.6 |
| 20260508052006 | 50 | 254 | 0.0 | 0.0 | 0.00 | 0.00 | 0.00 | 97 | 1016.5 |
| 20260508051503 | 50 | 244 | 0.0 | 0.0 | 0.00 | 0.00 | 0.00 | 97 | 1016.5 |
| 20260508050957 | 50 | 245 | 0.0 | 0.0 | 0.00 | 0.00 | 0.00 | 96 | 1016.7 |
| 20260508050455 | 50 | 247 | 0.0 | 0.0 | 0.00 | 0.00 | 0.00 | 96 | 1016.6 |
| 20260508045951 | 50 | 248 | 0.0 | 0.0 | 0.00 | 0.00 | 0.00 | 96 | 1016.5 |
| 20260508045448 | 50 | 250 | 0.0 | 0.0 | 0.00 | 0.00 | 0.00 | 96 | 1016.5 |
| 20260508044946 | 50 | 250 | 0.0 | 0.0 | 0.00 | 0.00 | 0.00 | 95 | 1016.2 |
| 20260508044443 | 50 | 254 | 0.0 | 0.0 | 0.00 | 0.00 | 0.00 | 95 | 1016.4 |
| 20260508043938 | 50 | 263 | 0.0 | 0.0 | 0.00 | 0.00 | 0.00 | 96 | 1016.4 |
| 20260508043436 | 50 | 247 | 0.0 | 0.0 | 0.00 | 0.00 | 0.00 | 96 | 1016.5 |
| 20260508042932 | 50 | 243 | 0.0 | 0.0 | 0.00 | 0.00 | 0.00 | 95 | 1016.4 |
| 20260508042430 | 50 | 247 | 0.0 | 0.0 | 0.00 | 0.00 | 0.00 | 95 | 1016.1 |
| 20260508041926 | 50 | 251 | 0.0 | 0.0 | 0.00 | 0.00 | 0.00 | 94 | 1016.4 |
| 20260508041423 | 50 | 246 | 0.0 | 0.0 | 0.00 | 0.00 | 0.00 | 93 | 1016.2 |
| 20260508040920 | 51 | 243 | 0.0 | 0.0 | 0.00 | 0.00 | 0.00 | 93 | 1016.3 |
| 20260508040417 | 51 | 244 | 0.0 | 0.0 | 0.00 | 0.00 | 0.00 | 92 | 1016.1 |
| 20260508035915 | 51 | 270 | 0.0 | 0.0 | 0.00 | 0.32 | 0.32 | 91 | 1016.2 |
| 20260508035411 | 51 | 253 | 0.0 | 0.0 | 0.00 | 0.32 | 0.32 | 92 | 1016.2 |
| 20260508034908 | 51 | 262 | 0.0 | 0.0 | 0.00 | 0.32 | 0.32 | 92 | 1016.2 |
| 20260508034406 | 51 | 251 | 0.0 | 0.0 | 0.00 | 0.32 | 0.32 | 94 | 1016.2 |
| 20260508033902 | 51 | 260 | 0.0 | 0.0 | 0.00 | 0.32 | 0.32 | 94 | 1016.2 |
| 20260508033400 | 51 | 250 | 0.0 | 0.0 | 0.00 | 0.32 | 0.32 | 93 | 1016.1 |
| 20260508032858 | 51 | 254 | 0.0 | 0.0 | 0.00 | 0.32 | 0.32 | 93 | 1016.1 |
| 20260508032355 | 52 | 247 | 0.0 | 0.0 | 0.00 | 0.32 | 0.32 | 93 | 1016.0 |
| 20260508031851 | 52 | 250 | 0.0 | 0.0 | 0.00 | 0.32 | 0.32 | 92 | 1016.4 |
| 20260508031349 | 52 | 247 | 0.0 | 0.0 | 0.00 | 0.32 | 0.32 | 90 | 1016.1 |
| 20260508030844 | 52 | 235 | 0.0 | 0.0 | 0.00 | 0.32 | 0.32 | 88 | 1015.9 |
| 20260508030342 | 53 | 238 | 0.0 | 0.0 | 0.00 | 0.32 | 0.32 | 87 | 1016.0 |
| 20260508025838 | 53 | 251 | 0.0 | 0.0 | 0.00 | 0.32 | 0.32 | 86 | 1016.2 |
| 20260508025335 | 53 | 260 | 0.0 | 0.0 | 0.00 | 0.32 | 0.32 | 86 | 1016.0 |
| 20260508024832 | 53 | 258 | 0.0 | 0.0 | 0.00 | 0.32 | 0.32 | 85 | 1015.9 |
| 20260508024329 | 53 | 266 | 0.0 | 0.0 | 0.00 | 0.32 | 0.32 | 85 | 1015.7 |
| 20260508023826 | 54 | 247 | 0.0 | 0.0 | 0.00 | 0.32 | 0.32 | 85 | 1015.8 |
| 20260508023322 | 54 | 247 | 0.0 | 0.0 | 0.00 | 0.32 | 0.32 | 84 | 1015.7 |
| 20260508022819 | 55 | 247 | 0.0 | 0.0 | 0.00 | 0.32 | 0.32 | 84 | 1015.5 |
| 20260508022315 | 54 | 263 | 0.0 | 0.0 | 0.00 | 0.32 | 0.32 | 81 | 1015.6 |
| 20260508021812 | 55 | 249 | 0.0 | 0.0 | 0.00 | 0.32 | 0.32 | 83 | 1015.8 |
| 20260508021308 | 55 | 248 | 0.0 | 0.0 | 0.00 | 0.32 | 0.32 | 82 | 1015.7 |
| 20260508020804 | 56 | 233 | 0.0 | 0.0 | 0.00 | 0.32 | 0.32 | 81 | 1015.6 |
| 20260508020302 | 56 | 239 | 0.0 | 0.0 | 0.00 | 0.32 | 0.32 | 77 | 1015.4 |
| 20260508015759 | 56 | 233 | 0.0 | 0.0 | 0.00 | 0.32 | 0.32 | 77 | 1015.2 |
| 20260508015256 | 57 | 243 | 0.0 | 0.0 | 0.00 | 0.32 | 0.32 | 77 | 1015.2 |
| 20260508014753 | 57 | 245 | 0.0 | 0.0 | 0.00 | 0.32 | 0.32 | 79 | 1015.1 |
| 20260508014250 | 57 | 247 | 0.0 | 0.9 | 0.00 | 0.32 | 0.32 | 78 | 1015.0 |
| 20260508013745 | 58 | 251 | 0.0 | 0.9 | 0.00 | 0.32 | 0.32 | 74 | 1014.6 |
| 20260508013242 | 58 | 248 | 0.9 | 0.9 | 0.00 | 0.32 | 0.32 | 74 | 1014.6 |
| 20260508012740 | 58 | 244 | 0.9 | 0.9 | 0.00 | 0.32 | 0.32 | 74 | 1014.6 |
| 20260508012237 | 58 | 253 | 0.9 | 0.9 | 0.00 | 0.32 | 0.32 | 75 | 1014.4 |
| 20260508011735 | 58 | 251 | 0.0 | 0.9 | 0.00 | 0.32 | 0.32 | 74 | 1014.3 |
| 20260508011232 | 58 | 278 | 1.7 | 1.7 | 0.00 | 0.32 | 0.32 | 76 | 1014.5 |
| 20260508010728 | 58 | 305 | 0.0 | 0.0 | 0.00 | 0.32 | 0.32 | 79 | 1014.4 |
| 20260508010227 | 58 | 252 | 0.0 | 0.9 | 0.00 | 0.32 | 0.32 | 73 | 1014.1 |
| 20260508005723 | 58 | 245 | 0.0 | 0.0 | 0.00 | 0.32 | 0.32 | 75 | 1014.0 |
| 20260508005220 | 58 | 246 | 0.0 | 0.9 | 0.00 | 0.32 | 0.32 | 72 | 1014.1 |
| 20260508004716 | 59 | 238 | 0.0 | 0.9 | 0.00 | 0.32 | 0.32 | 75 | 1014.1 |
| 20260508004212 | 59 | 252 | 0.0 | 0.9 | 0.00 | 0.32 | 0.32 | 74 | 1013.7 |
| 20260508003709 | 59 | 21 | 5.2 | 9.6 | 0.00 | 0.32 | 0.32 | 71 | 1013.9 |
| 20260508003207 | 60 | 58 | 1.7 | 1.7 | 0.00 | 0.32 | 0.32 | 74 | 1013.9 |
| 20260508002703 | 60 | 256 | 0.9 | 1.7 | 0.00 | 0.32 | 0.32 | 73 | 1013.6 |
| 20260508002201 | 60 | 245 | 0.9 | 1.7 | 0.00 | 0.32 | 0.32 | 73 | 1013.6 |
| 20260508001656 | 61 | 303 | 1.7 | 1.7 | 0.00 | 0.32 | 0.32 | 72 | 1013.3 |
| 20260508001152 | 61 | 213 | 2.6 | 2.6 | 0.00 | 0.32 | 0.32 | 73 | 1013.3 |
| 20260508000648 | 62 | 198 | 1.7 | 2.6 | 0.00 | 0.32 | 0.32 | 77 | 1013.2 |
| 20260508000145 | 62 | 242 | 0.9 | 1.7 | 0.00 | 0.32 | 0.32 | 73 | 1013.2 |
| 20260507235642 | 62 | 304 | 1.7 | 2.6 | 0.00 | 0.32 | 0.32 | 75 | 1013.4 |
| 20260507235139 | 62 | 215 | 0.9 | 1.7 | 0.00 | 0.32 | 0.32 | 74 | 1013.1 |
| 20260507234636 | 63 | 236 | 0.0 | 0.9 | 0.00 | 0.32 | 0.32 | 76 | 1013.3 |
| 20260507234132 | 63 | 240 | 0.0 | 0.0 | 0.00 | 0.32 | 0.32 | 76 | 1013.0 |
| 20260507233629 | 63 | 314 | 0.9 | 0.9 | 0.00 | 0.32 | 0.32 | 76 | 1012.9 |
| 20260507233128 | 63 | 308 | 0.0 | 0.9 | 0.00 | 0.32 | 0.32 | 82 | 1012.9 |
| 20260507232625 | 63 | 251 | 0.9 | 0.9 | 0.00 | 0.32 | 0.32 | 84 | 1013.1 |
| 20260507232121 | 63 | 252 | 0.0 | 0.0 | 0.00 | 0.32 | 0.32 | 93 | 1013.1 |
| 20260507231617 | 63 | 244 | 0.9 | 0.9 | 0.00 | 0.32 | 0.32 | 93 | 1012.8 |
| 20260507231115 | 63 | 292 | 0.9 | 0.9 | 0.00 | 0.32 | 0.32 | 94 | 1012.7 |
| 20260507230611 | 63 | 260 | 0.0 | 0.0 | 0.00 | 0.32 | 0.32 | 93 | 1012.7 |
| 20260507230108 | 64 | 33 | 3.5 | 4.3 | 0.00 | 0.32 | 0.32 | 92 | 1012.3 |
| 20260507225603 | 64 | 20 | 0.9 | 1.7 | 0.00 | 0.32 | 0.32 | 92 | 1012.5 |
| 20260507225100 | 64 | 265 | 0.0 | 0.9 | 0.00 | 0.32 | 0.32 | 92 | 1012.4 |
| 20260507224555 | 64 | 246 | 0.0 | 0.9 | 0.00 | 0.32 | 0.32 | 92 | 1012.1 |
| 20260507224052 | 64 | 357 | 0.9 | 0.9 | 0.00 | 0.32 | 0.32 | 91 | 1012.1 |
| 20260507223548 | 64 | 240 | 0.9 | 0.9 | 0.00 | 0.32 | 0.32 | 91 | 1011.9 |
| 20260507223045 | 64 | 332 | 1.7 | 1.7 | 0.00 | 0.32 | 0.32 | 91 | 1011.6 |
| 20260507222542 | 64 | 311 | 1.7 | 1.7 | 0.00 | 0.32 | 0.32 | 91 | 1011.4 |
| 20260507222039 | 64 | 290 | 0.9 | 0.9 | 0.00 | 0.32 | 0.32 | 92 | 1011.6 |
| 20260507221535 | 64 | 304 | 0.9 | 0.9 | 0.00 | 0.32 | 0.32 | 92 | 1011.5 |
| 20260507221032 | 64 | 20 | 2.6 | 4.3 | 0.00 | 0.32 | 0.32 | 92 | 1011.6 |
| 20260507220529 | 64 | 23 | 2.6 | 2.6 | 0.00 | 0.32 | 0.32 | 92 | 1011.3 |
| 20260507220027 | 65 | 2 | 2.6 | 4.3 | 0.00 | 0.32 | 0.32 | 91 | 1011.4 |
| 20260507215523 | 65 | 40 | 1.7 | 1.7 | 0.00 | 0.32 | 0.32 | 91 | 1011.2 |
| 20260507215021 | 65 | 266 | 0.9 | 1.7 | 0.00 | 0.32 | 0.32 | 91 | 1011.3 |
| 20260507214518 | 65 | 348 | 1.7 | 1.7 | 0.00 | 0.32 | 0.32 | 91 | 1011.2 |
| 20260507214014 | 65 | 30 | 0.9 | 4.3 | 0.00 | 0.32 | 0.32 | 91 | 1011.0 |
| 20260507213510 | 66 | 308 | 2.6 | 2.6 | 0.00 | 0.32 | 0.32 | 90 | 1011.2 |
| 20260507213007 | 66 | 309 | 4.3 | 6.1 | 0.00 | 0.32 | 0.32 | 89 | 1010.7 |
| 20260507212503 | 66 | 286 | 0.9 | 0.9 | 0.00 | 0.32 | 0.32 | 89 | 1010.6 |
| 20260507212000 | 66 | 40 | 4.3 | 6.1 | 0.00 | 0.32 | 0.32 | 89 | 1010.3 |
| 20260507211456 | 65 | 7 | 5.2 | 7.0 | 0.00 | 0.32 | 0.32 | 90 | 1010.3 |
| 20260507210953 | 66 | 31 | 5.2 | 7.0 | 0.00 | 0.32 | 0.32 | 89 | 1010.5 |
| 20260507210450 | 66 | 249 | 0.9 | 1.7 | 0.00 | 0.32 | 0.32 | 89 | 1010.4 |
| 20260507205947 | 67 | 330 | 0.9 | 0.9 | 0.00 | 0.32 | 0.32 | 89 | 1010.4 |
| 20260507205444 | 67 | 17 | 0.9 | 1.7 | 0.00 | 0.32 | 0.32 | 88 | 1010.2 |
| 20260507204939 | 69 | 355 | 1.7 | 1.7 | 0.00 | 0.32 | 0.32 | 87 | 1010.3 |
| 20260507204430 | 71 | 19 | 0.9 | 1.7 | 0.00 | 0.32 | 0.32 | 85 | 1010.0 |
| 20260507203928 | 75 | 330 | 0.9 | 1.7 | 0.00 | 0.32 | 0.32 | 82 | 1009.5 |
| 20260507203420 | 74 | 249 | 0.0 | 0.9 | 0.00 | 0.32 | 0.32 | 83 | 1009.4 |
| 20260507202916 | 74 | 294 | 0.0 | 0.9 | 0.00 | 0.32 | 0.32 | 85 | 1009.6 |
| 20260507202413 | 73 | 240 | 0.0 | 0.9 | 0.00 | 0.32 | 0.32 | 85 | 1009.5 |
| 20260507201908 | 73 | 174 | 0.9 | 1.7 | 0.00 | 0.32 | 0.32 | 84 | 1009.6 |
| 20260507201404 | 72 | 244 | 0.0 | 0.9 | 0.00 | 0.32 | 0.32 | 85 | 1009.6 |
| 20260507200901 | 72 | 174 | 2.6 | 2.6 | 0.00 | 0.32 | 0.32 | 84 | 1009.6 |
| 20260507200357 | 72 | 179 | 1.7 | 1.7 | 0.00 | 0.32 | 0.32 | 87 | 1009.6 |
| 20260507195853 | 71 | 183 | 2.6 | 2.6 | 0.00 | 0.32 | 0.32 | 84 | 1009.6 |
| 20260507195350 | 71 | 241 | 0.0 | 0.0 | 0.00 | 0.32 | 0.32 | 86 | 1009.5 |
| 20260507194848 | 71 | 240 | 0.0 | 0.0 | 0.00 | 0.32 | 0.32 | 88 | 1009.5 |
| 20260507194344 | 70 | 232 | 1.7 | 1.7 | 0.00 | 0.32 | 0.32 | 87 | 1009.7 |
| 20260507193840 | 70 | 224 | 0.9 | 0.9 | 0.00 | 0.32 | 0.32 | 91 | 1009.8 |
| 20260507193338 | 70 | 208 | 0.9 | 1.7 | 0.00 | 0.32 | 0.32 | 92 | 1010.0 |
| 20260507192833 | 69 | 188 | 1.7 | 1.7 | 0.00 | 0.32 | 0.32 | 90 | 1009.9 |
| 20260507192330 | 69 | 188 | 4.3 | 7.8 | 0.00 | 0.32 | 0.32 | 91 | 1010.0 |
| 20260507191827 | 70 | 214 | 1.7 | 1.7 | 0.00 | 0.32 | 0.32 | 94 | 1010.1 |
| 20260507191323 | 69 | 221 | 0.9 | 0.9 | 0.00 | 0.32 | 0.32 | 98 | 1010.1 |
| 20260507190820 | 68 | 233 | 0.0 | 0.9 | 0.00 | 0.32 | 0.32 | 96 | 1009.8 |
| 20260507190318 | 68 | 235 | 0.9 | 0.9 | 0.05 | 0.32 | 0.32 | 95 | 1009.9 |
| 20260507185817 | 68 | 194 | 1.7 | 1.7 | 0.12 | 0.32 | 0.32 | 93 | 1010.1 |
| 20260507185313 | 69 | 218 | 0.9 | 0.9 | 0.12 | 0.31 | 0.31 | 94 | 1010.1 |
| 20260507184811 | 70 | 241 | 0.0 | 0.0 | 0.12 | 0.31 | 0.31 | 90 | 1010.3 |
| 20260507184309 | 72 | 259 | 0.0 | 0.0 | 0.00 | 0.29 | 0.29 | 81 | 1009.9 |
| 20260507183805 | 73 | 242 | 0.0 | 0.0 | 0.00 | 0.29 | 0.29 | 82 | 1009.8 |
| 20260507183302 | 73 | 244 | 0.0 | 0.0 | 0.00 | 0.29 | 0.29 | 79 | 1010.0 |
| 20260507182759 | 73 | 229 | 0.0 | 0.9 | 0.00 | 0.29 | 0.29 | 81 | 1010.3 |
| 20260507182254 | 73 | 190 | 0.9 | 1.7 | 0.00 | 0.29 | 0.29 | 82 | 1010.4 |
| 20260507181751 | 74 | 155 | 1.7 | 4.3 | 0.00 | 0.29 | 0.29 | 80 | 1010.3 |
| 20260507181247 | 73 | 250 | 0.9 | 1.7 | 0.00 | 0.29 | 0.29 | 83 | 1010.3 |
| 20260507180744 | 73 | 208 | 0.9 | 1.7 | 0.00 | 0.29 | 0.29 | 83 | 1010.4 |
| 20260507180241 | 74 | 212 | 0.9 | 0.9 | 0.00 | 0.29 | 0.29 | 82 | 1010.1 |
| 20260507175736 | 74 | 229 | 0.9 | 0.9 | 0.00 | 0.29 | 0.29 | 83 | 1010.3 |
| 20260507175233 | 73 | 251 | 0.9 | 0.9 | 0.00 | 0.29 | 0.29 | 83 | 1010.3 |
| 20260507174731 | 74 | 224 | 0.9 | 1.7 | 0.00 | 0.29 | 0.29 | 80 | 1010.3 |
| 20260507174229 | 73 | 205 | 1.7 | 1.7 | 0.00 | 0.29 | 0.29 | 81 | 1010.4 |
| 20260507173727 | 73 | 144 | 2.6 | 4.3 | 0.00 | 0.29 | 0.29 | 80 | 1010.5 |
| 20260507173223 | 73 | 180 | 2.6 | 2.6 | 0.00 | 0.29 | 0.29 | 82 | 1010.5 |
| 20260507172719 | 73 | 236 | 0.9 | 0.9 | 0.00 | 0.29 | 0.29 | 85 | 1010.7 |
| 20260507172211 | 72 | 229 | 2.6 | 2.6 | 0.00 | 0.29 | 0.29 | 83 | 1010.5 |
| 20260507171711 | 71 | 211 | 1.7 | 1.7 | 0.00 | 0.29 | 0.29 | 87 | 1010.7 |
| 20260507171209 | 72 | 197 | 3.5 | 4.3 | 0.00 | 0.29 | 0.29 | 84 | 1010.6 |
| 20260507170705 | 72 | 226 | 2.6 | 2.6 | 0.00 | 0.29 | 0.29 | 85 | 1010.7 |
| 20260507170203 | 71 | 230 | 0.9 | 0.9 | 0.00 | 0.29 | 0.29 | 89 | 1010.8 |
| 20260507165658 | 70 | 155 | 3.5 | 5.2 | 0.00 | 0.29 | 0.29 | 92 | 1011.0 |